createdAt,value
2018-12-24T00:00:21.874Z,1004.57
2018-12-24T00:01:21.884Z,1004.58
2018-12-24T00:02:21.850Z,1004.63
2018-12-24T00:03:21.839Z,1004.68
2018-12-24T00:04:21.827Z,1004.70
2018-12-24T00:05:21.818Z,1004.64
2018-12-24T00:06:21.825Z,1004.58
2018-12-24T00:07:21.792Z,1004.56
2018-12-24T00:08:21.781Z,1004.63
2018-12-24T00:09:21.772Z,1004.72
2018-12-24T00:10:21.756Z,1004.75
2018-12-24T00:11:21.766Z,1004.80
2018-12-24T00:12:21.732Z,1004.86
2018-12-24T00:13:21.724Z,1004.82
2018-12-24T00:14:21.710Z,1004.82
2018-12-24T00:15:21.703Z,1004.76
2018-12-24T00:16:21.713Z,1004.78
2018-12-24T00:17:21.685Z,1004.86
2018-12-24T00:18:21.664Z,1004.82
2018-12-24T00:19:21.664Z,1004.89
2018-12-24T00:20:21.641Z,1004.90
2018-12-24T00:21:21.629Z,1004.96
2018-12-24T00:22:21.634Z,1004.98
2018-12-24T00:23:21.605Z,1004.99
2018-12-24T00:24:21.592Z,1004.99
2018-12-24T00:25:21.582Z,1005.04
2018-12-24T00:26:21.569Z,1005.04
2018-12-24T00:27:21.576Z,1004.97
2018-12-24T00:28:21.546Z,1004.99
2018-12-24T00:29:21.535Z,1005.02
2018-12-24T00:30:21.522Z,1005.03
2018-12-24T00:31:21.524Z,1005.07
2018-12-24T00:32:21.518Z,1005.12
2018-12-24T00:33:21.489Z,1005.14
2018-12-24T00:34:21.484Z,1005.11
2018-12-24T00:35:21.464Z,1005.13
2018-12-24T00:36:21.453Z,1005.17
2018-12-24T00:37:21.469Z,1005.16
2018-12-24T00:38:21.427Z,1005.26
2018-12-24T00:39:21.417Z,1005.32
2018-12-24T00:40:21.413Z,1005.33
2018-12-24T00:41:21.394Z,1005.36
2018-12-24T00:42:21.400Z,1005.39
2018-12-24T00:43:21.368Z,1005.37
2018-12-24T00:44:21.357Z,1005.43
2018-12-24T00:45:21.345Z,1005.45
2018-12-24T00:46:21.334Z,1005.42
2018-12-24T00:47:21.387Z,1005.50
2018-12-24T00:48:21.310Z,1005.48
2018-12-24T00:49:21.300Z,1005.52
2018-12-24T00:50:21.292Z,1005.47
2018-12-24T00:51:21.280Z,1005.55
2018-12-24T00:52:21.290Z,1005.58
2018-12-24T00:53:21.251Z,1005.66
2018-12-24T00:54:21.239Z,1005.68
2018-12-24T00:55:21.229Z,1005.72
2018-12-24T00:56:21.217Z,1005.75
2018-12-24T00:57:21.206Z,1005.77
2018-12-24T00:58:21.219Z,1005.80
2018-12-24T00:59:21.184Z,1005.81
2018-12-24T01:00:21.171Z,1005.80
2018-12-24T01:01:21.157Z,1005.87
2018-12-24T01:02:21.147Z,1005.88
2018-12-24T01:03:21.156Z,1005.93
2018-12-24T01:04:21.120Z,1005.88
2018-12-24T01:05:21.113Z,1005.97
2018-12-24T01:06:21.101Z,1005.95
2018-12-24T01:07:21.089Z,1005.95
2018-12-24T01:08:21.092Z,1005.99
2018-12-24T01:09:21.066Z,1006.00
2018-12-24T01:10:21.051Z,1006.03
2018-12-24T01:11:21.039Z,1006.07
2018-12-24T01:12:24.654Z,1006.09
2018-12-24T01:13:21.034Z,1006.12
2018-12-24T01:14:21.006Z,1006.15
2018-12-24T01:15:20.998Z,1006.23
2018-12-24T01:16:20.979Z,1006.21
2018-12-24T01:17:20.971Z,1006.27
2018-12-24T01:18:20.975Z,1006.26
2018-12-24T01:19:20.949Z,1006.31
2018-12-24T01:20:20.939Z,1006.31
2018-12-24T01:21:20.928Z,1006.36
2018-12-24T01:22:20.917Z,1006.42
2018-12-24T01:23:20.916Z,1006.45
2018-12-24T01:24:20.885Z,1006.45
2018-12-24T01:25:20.881Z,1006.45
2018-12-24T01:26:20.864Z,1006.50
2018-12-24T01:27:20.851Z,1006.56
2018-12-24T01:28:20.860Z,1006.54
2018-12-24T01:29:20.827Z,1006.57
2018-12-24T01:30:20.815Z,1006.63
2018-12-24T01:31:20.807Z,1006.59
2018-12-24T01:32:20.802Z,1006.64
2018-12-24T01:33:20.813Z,1006.63
2018-12-24T01:34:20.767Z,1006.71
2018-12-24T01:35:20.757Z,1006.70
2018-12-24T01:36:20.744Z,1006.71
2018-12-24T01:37:20.738Z,1006.71
2018-12-24T01:38:20.721Z,1006.72
2018-12-24T01:39:20.729Z,1006.77
2018-12-24T01:40:20.699Z,1006.75
2018-12-24T01:41:20.687Z,1006.82
2018-12-24T01:42:20.678Z,1006.84
2018-12-24T01:43:20.662Z,1006.85
2018-12-24T01:44:20.671Z,1006.89
2018-12-24T01:45:20.639Z,1006.93
2018-12-24T01:46:20.628Z,1006.94
2018-12-24T01:47:20.616Z,1007.00
2018-12-24T01:48:20.604Z,1006.96
2018-12-24T01:49:20.612Z,1007.01
2018-12-24T01:50:20.583Z,1007.03
2018-12-24T01:51:20.581Z,1007.09
2018-12-24T01:52:20.560Z,1007.08
2018-12-24T01:53:20.546Z,1007.08
2018-12-24T01:54:20.557Z,1007.12
2018-12-24T01:55:20.526Z,1007.16
2018-12-24T01:56:20.511Z,1007.10
2018-12-24T01:57:20.504Z,1007.23
2018-12-24T01:58:20.548Z,1007.23
2018-12-24T01:59:20.497Z,1007.22
2018-12-24T02:00:20.478Z,1007.20
2018-12-24T02:01:20.453Z,1007.20
2018-12-24T02:02:20.449Z,1007.23
2018-12-24T02:03:20.430Z,1007.25
2018-12-24T02:04:20.435Z,1007.29
2018-12-24T02:05:20.408Z,1007.31
2018-12-24T02:06:20.406Z,1007.27
2018-12-24T02:07:20.383Z,1007.34
2018-12-24T02:08:20.374Z,1007.39
2018-12-24T02:09:20.389Z,1007.48
2018-12-24T02:10:20.347Z,1007.45
2018-12-24T02:11:20.337Z,1007.43
2018-12-24T02:12:20.327Z,1007.43
2018-12-24T02:13:20.312Z,1007.44
2018-12-24T02:14:20.319Z,1007.46
2018-12-24T02:15:20.291Z,1007.45
2018-12-24T02:16:20.278Z,1007.45
2018-12-24T02:17:20.269Z,1007.46
2018-12-24T02:18:20.258Z,1007.51
2018-12-24T02:19:20.265Z,1007.54
2018-12-24T02:20:20.230Z,1007.55
2018-12-24T02:21:20.217Z,1007.59
2018-12-24T02:22:20.205Z,1007.58
2018-12-24T02:23:20.196Z,1007.67
2018-12-24T02:24:20.205Z,1007.62
2018-12-24T02:25:20.174Z,1007.61
2018-12-24T02:26:20.161Z,1007.68
2018-12-24T02:27:20.146Z,1007.71
2018-12-24T02:28:20.135Z,1007.72
2018-12-24T02:29:20.150Z,1007.75
2018-12-24T02:30:20.114Z,1007.80
2018-12-24T02:31:20.098Z,1007.75
2018-12-24T02:32:20.091Z,1007.79
2018-12-24T02:33:20.082Z,1007.85
2018-12-24T02:34:20.093Z,1007.86
2018-12-24T02:35:20.055Z,1007.84
2018-12-24T02:36:20.044Z,1007.90
2018-12-24T02:37:20.032Z,1007.93
2018-12-24T02:38:20.020Z,1007.86
2018-12-24T02:39:20.028Z,1007.91
2018-12-24T02:40:19.996Z,1007.92
2018-12-24T02:41:19.984Z,1007.93
2018-12-24T02:42:20.011Z,1007.91
2018-12-24T02:43:19.961Z,1007.93
2018-12-24T02:44:19.971Z,1007.99
2018-12-24T02:45:19.938Z,1007.99
2018-12-24T02:46:19.927Z,1008.04
2018-12-24T02:47:19.914Z,1008.01
2018-12-24T02:48:19.924Z,1008.03
2018-12-24T02:49:19.894Z,1008.11
2018-12-24T02:50:19.878Z,1008.11
2018-12-24T02:51:19.867Z,1008.12
2018-12-24T02:52:19.856Z,1008.08
2018-12-24T02:53:19.865Z,1008.08
2018-12-24T02:54:19.832Z,1008.13
2018-12-24T02:55:19.822Z,1008.16
2018-12-24T02:56:19.813Z,1008.17
2018-12-24T02:57:19.799Z,1008.25
2018-12-24T02:58:19.807Z,1008.26
2018-12-24T02:59:19.774Z,1008.26
2018-12-24T03:00:19.762Z,1008.29
2018-12-24T03:01:19.759Z,1008.35
2018-12-24T03:02:19.739Z,1008.35
2018-12-24T03:03:19.748Z,1008.35
2018-12-24T03:04:19.715Z,1008.43
2018-12-24T03:05:19.702Z,1008.42
2018-12-24T03:06:19.691Z,1008.43
2018-12-24T03:07:19.680Z,1008.43
2018-12-24T03:08:19.687Z,1008.43
2018-12-24T03:09:19.660Z,1008.50
2018-12-24T03:10:19.648Z,1008.53
2018-12-24T03:11:19.634Z,1008.51
2018-12-24T03:12:19.625Z,1008.54
2018-12-24T03:13:19.631Z,1008.56
2018-12-24T03:14:19.597Z,1008.57
2018-12-24T03:15:19.588Z,1008.58
2018-12-24T03:16:19.607Z,1008.60
2018-12-24T03:17:19.564Z,1008.62
2018-12-24T03:18:19.574Z,1008.58
2018-12-24T03:19:19.543Z,1008.62
2018-12-24T03:20:19.533Z,1008.60
2018-12-24T03:21:19.517Z,1008.60
2018-12-24T03:22:19.506Z,1008.61
2018-12-24T03:23:19.492Z,1008.65
2018-12-24T03:24:19.499Z,1008.62
2018-12-24T03:25:19.468Z,1008.60
2018-12-24T03:26:19.459Z,1008.60
2018-12-24T03:27:19.448Z,1008.59
2018-12-24T03:28:19.435Z,1008.60
2018-12-24T03:29:19.448Z,1008.62
2018-12-24T03:30:19.412Z,1008.62
2018-12-24T03:31:19.399Z,1008.63
2018-12-24T03:32:19.400Z,1008.68
2018-12-24T03:33:19.375Z,1008.75
2018-12-24T03:34:19.404Z,1008.80
2018-12-24T03:35:19.350Z,1008.84
2018-12-24T03:36:19.338Z,1008.84
2018-12-24T03:37:19.328Z,1008.81
2018-12-24T03:38:19.316Z,1008.93
2018-12-24T03:39:19.314Z,1008.86
2018-12-24T03:40:19.330Z,1008.95
2018-12-24T03:41:19.278Z,1008.91
2018-12-24T03:42:19.267Z,1008.89
2018-12-24T03:43:19.257Z,1008.94
2018-12-24T03:44:19.245Z,1008.97
2018-12-24T03:45:19.260Z,1009.00
2018-12-24T03:46:19.222Z,1009.08
2018-12-24T03:47:19.211Z,1009.11
2018-12-24T03:48:19.198Z,1009.13
2018-12-24T03:49:19.184Z,1009.17
2018-12-24T03:50:19.194Z,1009.14
2018-12-24T03:51:19.163Z,1009.16
2018-12-24T03:52:19.149Z,1009.13
2018-12-24T03:53:19.144Z,1009.18
2018-12-24T03:54:19.127Z,1009.24
2018-12-24T03:55:19.117Z,1009.17
2018-12-24T03:56:19.129Z,1009.23
2018-12-24T03:57:19.093Z,1009.27
2018-12-24T03:58:19.082Z,1009.27
2018-12-24T03:59:19.072Z,1009.30
2018-12-24T04:00:19.054Z,1009.25
2018-12-24T04:01:19.066Z,1009.22
2018-12-24T04:02:19.033Z,1009.31
2018-12-24T04:03:19.024Z,1009.30
2018-12-24T04:04:19.007Z,1009.30
2018-12-24T04:05:18.997Z,1009.34
2018-12-24T04:06:19.099Z,1009.35
2018-12-24T04:07:18.972Z,1009.38
2018-12-24T04:08:18.960Z,1009.37
2018-12-24T04:09:18.952Z,1009.45
2018-12-24T04:10:18.937Z,1009.53
2018-12-24T04:11:18.948Z,1009.54
2018-12-24T04:12:18.914Z,1009.50
2018-12-24T04:13:22.587Z,1009.57
2018-12-24T04:14:18.890Z,1009.54
2018-12-24T04:15:18.876Z,1009.58
2018-12-24T04:16:18.866Z,1009.55
2018-12-24T04:17:18.876Z,1009.59
2018-12-24T04:18:18.842Z,1009.58
2018-12-24T04:19:18.832Z,1009.63
2018-12-24T04:20:18.818Z,1009.61
2018-12-24T04:21:18.806Z,1009.69
2018-12-24T04:22:18.822Z,1009.67
2018-12-24T04:23:18.854Z,1009.66
2018-12-24T04:24:18.775Z,1009.63
2018-12-24T04:25:18.759Z,1009.72
2018-12-24T04:26:18.749Z,1009.73
2018-12-24T04:27:18.757Z,1009.81
2018-12-24T04:28:18.727Z,1009.83
2018-12-24T04:29:18.714Z,1009.88
2018-12-24T04:30:18.700Z,1009.90
2018-12-24T04:31:18.688Z,1009.85
2018-12-24T04:32:18.702Z,1009.92
2018-12-24T04:33:18.664Z,1009.96
2018-12-24T04:34:18.661Z,1009.98
2018-12-24T04:35:18.650Z,1009.96
2018-12-24T04:36:18.628Z,1010.00
2018-12-24T04:37:18.617Z,1010.03
2018-12-24T04:38:18.627Z,1010.00
2018-12-24T04:39:18.597Z,1010.00
2018-12-24T04:40:18.590Z,1010.08
2018-12-24T04:41:18.575Z,1010.06
2018-12-24T04:42:18.562Z,1010.08
2018-12-24T04:43:18.574Z,1010.10
2018-12-24T04:44:18.537Z,1010.07
2018-12-24T04:45:18.524Z,1010.14
2018-12-24T04:46:18.512Z,1010.16
2018-12-24T04:47:18.503Z,1010.21
2018-12-24T04:48:18.514Z,1010.23
2018-12-24T04:49:18.478Z,1010.24
2018-12-24T04:50:18.471Z,1010.29
2018-12-24T04:51:18.458Z,1010.28
2018-12-24T04:52:18.450Z,1010.28
2018-12-24T04:53:18.449Z,1010.33
2018-12-24T04:54:18.418Z,1010.32
2018-12-24T04:55:18.407Z,1010.30
2018-12-24T04:56:18.401Z,1010.33
2018-12-24T04:57:18.387Z,1010.29
2018-12-24T04:58:18.419Z,1010.28
2018-12-24T04:59:18.360Z,1010.39
2018-12-24T05:00:18.349Z,1010.39
2018-12-24T05:01:18.336Z,1010.41
2018-12-24T05:02:18.323Z,1010.40
2018-12-24T05:03:18.313Z,1010.52
2018-12-24T05:04:18.318Z,1010.49
2018-12-24T05:05:18.292Z,1010.54
2018-12-24T05:06:18.279Z,1010.58
2018-12-24T05:07:18.266Z,1010.64
2018-12-24T05:08:18.253Z,1010.65
2018-12-24T05:09:18.264Z,1010.66
2018-12-24T05:10:18.230Z,1010.72
2018-12-24T05:11:18.223Z,1010.74
2018-12-24T05:12:18.206Z,1010.83
2018-12-24T05:13:18.197Z,1010.81
2018-12-24T05:14:18.202Z,1010.86
2018-12-24T05:15:18.171Z,1010.87
2018-12-24T05:16:18.160Z,1010.91
2018-12-24T05:17:18.149Z,1010.90
2018-12-24T05:18:18.137Z,1010.90
2018-12-24T05:19:18.145Z,1010.97
2018-12-24T05:20:18.115Z,1011.03
2018-12-24T05:21:18.107Z,1011.07
2018-12-24T05:22:18.090Z,1011.12
2018-12-24T05:23:18.176Z,1011.17
2018-12-24T05:24:18.086Z,1011.16
2018-12-24T05:25:18.055Z,1011.19
2018-12-24T05:26:18.044Z,1011.20
2018-12-24T05:27:18.032Z,1011.26
2018-12-24T05:28:18.021Z,1011.34
2018-12-24T05:29:18.037Z,1011.34
2018-12-24T05:30:18.002Z,1011.31
2018-12-24T05:31:17.988Z,1011.40
2018-12-24T05:32:17.976Z,1011.42
2018-12-24T05:33:17.963Z,1011.42
2018-12-24T05:34:17.975Z,1011.42
2018-12-24T05:35:17.940Z,1011.49
2018-12-24T05:36:17.929Z,1011.51
2018-12-24T05:37:17.925Z,1011.60
2018-12-24T05:38:17.904Z,1011.59
2018-12-24T05:39:17.910Z,1011.65
2018-12-24T05:40:17.886Z,1011.65
2018-12-24T05:41:17.872Z,1011.66
2018-12-24T05:42:17.860Z,1011.68
2018-12-24T05:43:17.848Z,1011.73
2018-12-24T05:44:17.854Z,1011.69
2018-12-24T05:45:17.825Z,1011.68
2018-12-24T05:46:17.820Z,1011.72
2018-12-24T05:47:17.803Z,1011.72
2018-12-24T05:48:17.788Z,1011.77
2018-12-24T05:49:17.798Z,1011.77
2018-12-24T05:50:17.764Z,1011.85
2018-12-24T05:51:17.753Z,1011.83
2018-12-24T05:52:17.744Z,1011.83
2018-12-24T05:53:17.728Z,1011.84
2018-12-24T05:54:17.718Z,1011.87
2018-12-24T05:55:17.724Z,1011.93
2018-12-24T05:56:17.693Z,1011.96
2018-12-24T05:57:17.681Z,1011.99
2018-12-24T05:58:17.669Z,1011.96
2018-12-24T05:59:17.661Z,1012.05
2018-12-24T06:00:17.675Z,1012.08
2018-12-24T06:01:17.638Z,1012.09
2018-12-24T06:02:17.624Z,1012.18
2018-12-24T06:03:17.616Z,1012.18
2018-12-24T06:04:17.599Z,1012.28
2018-12-24T06:05:17.587Z,1012.28
2018-12-24T06:06:17.599Z,1012.30
2018-12-24T06:07:17.568Z,1012.31
2018-12-24T06:08:17.552Z,1012.39
2018-12-24T06:09:17.541Z,1012.41
2018-12-24T06:10:17.529Z,1012.49
2018-12-24T06:11:17.537Z,1012.51
2018-12-24T06:12:17.508Z,1012.51
2018-12-24T06:13:17.495Z,1012.56
2018-12-24T06:14:17.482Z,1012.58
2018-12-24T06:15:17.471Z,1012.60
2018-12-24T06:16:17.478Z,1012.62
2018-12-24T06:17:17.542Z,1012.78
2018-12-24T06:18:17.436Z,1012.82
2018-12-24T06:19:17.425Z,1012.81
2018-12-24T06:20:17.434Z,1012.87
2018-12-24T06:21:17.418Z,1012.94
2018-12-24T06:22:17.388Z,1012.94
2018-12-24T06:23:17.384Z,1013.00
2018-12-24T06:24:17.366Z,1013.00
2018-12-24T06:25:17.353Z,1013.05
2018-12-24T06:26:17.360Z,1013.06
2018-12-24T06:27:17.329Z,1013.14
2018-12-24T06:28:17.323Z,1013.15
2018-12-24T06:29:17.312Z,1013.16
2018-12-24T06:30:17.294Z,1013.16
2018-12-24T06:31:17.303Z,1013.17
2018-12-24T06:32:17.272Z,1013.18
2018-12-24T06:33:17.260Z,1013.18
2018-12-24T06:34:17.249Z,1013.16
2018-12-24T06:35:17.237Z,1013.16
2018-12-24T06:36:17.248Z,1013.19
2018-12-24T06:37:17.214Z,1013.20
2018-12-24T06:38:17.205Z,1013.16
2018-12-24T06:39:17.196Z,1013.23
2018-12-24T06:40:17.177Z,1013.24
2018-12-24T06:41:17.165Z,1013.22
2018-12-24T06:42:18.242Z,1013.26
2018-12-24T06:43:17.143Z,1013.25
2018-12-24T06:44:17.135Z,1013.32
2018-12-24T06:45:17.122Z,1013.42
2018-12-24T06:46:17.113Z,1013.40
2018-12-24T06:47:17.115Z,1013.40
2018-12-24T06:48:17.087Z,1013.46
2018-12-24T06:49:17.079Z,1013.48
2018-12-24T06:50:17.070Z,1013.53
2018-12-24T06:51:17.054Z,1013.61
2018-12-24T06:52:17.063Z,1013.58
2018-12-24T06:53:17.026Z,1013.62
2018-12-24T06:54:17.014Z,1013.57
2018-12-24T06:55:17.003Z,1013.59
2018-12-24T06:56:16.991Z,1013.57
2018-12-24T06:57:16.980Z,1013.58
2018-12-24T06:58:16.987Z,1013.57
2018-12-24T06:59:16.956Z,1013.66
2018-12-24T07:00:16.948Z,1013.62
2018-12-24T07:01:16.930Z,1013.69
2018-12-24T07:02:16.920Z,1013.77
2018-12-24T07:03:16.926Z,1013.76
2018-12-24T07:04:16.897Z,1013.78
2018-12-24T07:05:16.884Z,1013.84
2018-12-24T07:06:16.874Z,1013.84
2018-12-24T07:07:16.862Z,1013.84
2018-12-24T07:08:16.867Z,1013.86
2018-12-24T07:09:16.837Z,1013.88
2018-12-24T07:10:16.825Z,1013.81
2018-12-24T07:11:16.813Z,1013.83
2018-12-24T07:12:16.801Z,1013.84
2018-12-24T07:13:16.809Z,1013.79
2018-12-24T07:14:16.787Z,1013.81
2018-12-24T07:15:16.771Z,1013.87
2018-12-24T07:16:16.756Z,1013.89
2018-12-24T07:17:16.749Z,1013.88
2018-12-24T07:18:16.751Z,1013.91
2018-12-24T07:19:16.719Z,1013.97
2018-12-24T07:20:16.707Z,1013.99
2018-12-24T07:21:16.696Z,1014.02
2018-12-24T07:22:16.685Z,1014.05
2018-12-24T07:23:16.695Z,1014.05
2018-12-24T07:24:16.660Z,1014.04
2018-12-24T07:25:16.651Z,1014.05
2018-12-24T07:26:16.636Z,1013.98
2018-12-24T07:27:16.625Z,1014.07
2018-12-24T07:28:16.615Z,1014.12
2018-12-24T07:29:16.623Z,1014.13
2018-12-24T07:30:16.591Z,1014.14
2018-12-24T07:31:17.874Z,1014.14
2018-12-24T07:32:16.567Z,1014.15
2018-12-24T07:33:16.554Z,1014.17
2018-12-24T07:34:16.586Z,1014.18
2018-12-24T07:35:16.533Z,1014.16
2018-12-24T07:36:16.517Z,1014.18
2018-12-24T07:37:16.507Z,1014.22
2018-12-24T07:38:16.496Z,1014.16
2018-12-24T07:39:16.483Z,1014.17
2018-12-24T07:40:16.493Z,1014.15
2018-12-24T07:41:16.461Z,1014.15
2018-12-24T07:42:16.453Z,1014.16
2018-12-24T07:43:16.440Z,1014.17
2018-12-24T07:44:23.920Z,1014.15
2018-12-24T07:45:17.433Z,1014.19
2018-12-24T07:46:16.403Z,1014.23
2018-12-24T07:47:16.390Z,1014.20
2018-12-24T07:48:16.380Z,1014.31
2018-12-24T07:49:16.370Z,1014.29
2018-12-24T07:50:16.378Z,1014.34
2018-12-24T07:51:16.349Z,1014.31
2018-12-24T07:52:16.336Z,1014.33
2018-12-24T07:53:16.323Z,1014.34
2018-12-24T07:54:16.311Z,1014.31
2018-12-24T07:55:16.326Z,1014.26
2018-12-24T07:56:16.290Z,1014.31
2018-12-24T07:57:16.282Z,1014.39
2018-12-24T07:58:16.266Z,1014.37
2018-12-24T07:59:16.255Z,1014.37
2018-12-24T08:00:16.244Z,1014.41
2018-12-24T08:01:16.251Z,1014.45
2018-12-24T08:02:16.218Z,1014.47
2018-12-24T08:03:16.209Z,1014.44
2018-12-24T08:04:16.195Z,1014.47
2018-12-24T08:05:16.184Z,1014.52
2018-12-24T08:06:16.215Z,1014.47
2018-12-24T08:07:16.162Z,1014.49
2018-12-24T08:08:16.153Z,1014.52
2018-12-24T08:09:16.143Z,1014.50
2018-12-24T08:10:16.129Z,1014.55
2018-12-24T08:11:16.137Z,1014.50
2018-12-24T08:12:16.105Z,1014.59
2018-12-24T08:13:16.093Z,1014.65
2018-12-24T08:14:16.087Z,1014.59
2018-12-24T08:15:16.070Z,1014.58
2018-12-24T08:16:16.084Z,1014.61
2018-12-24T08:17:16.049Z,1014.64
2018-12-24T08:18:16.036Z,1014.65
2018-12-24T08:19:16.027Z,1014.67
2018-12-24T08:20:16.012Z,1014.60
2018-12-24T08:21:16.002Z,1014.73
2018-12-24T08:22:16.007Z,1014.73
2018-12-24T08:23:15.977Z,1014.79
2018-12-24T08:24:15.966Z,1014.79
2018-12-24T08:25:15.956Z,1014.86
2018-12-24T08:26:15.943Z,1014.94
2018-12-24T08:27:15.952Z,1014.98
2018-12-24T08:28:15.920Z,1015.03
2018-12-24T08:29:15.914Z,1015.04
2018-12-24T08:30:15.900Z,1015.08
2018-12-24T08:31:15.891Z,1015.10
2018-12-24T08:32:15.902Z,1015.05
2018-12-24T08:33:15.867Z,1015.10
2018-12-24T08:34:15.854Z,1015.07
2018-12-24T08:35:15.847Z,1015.15
2018-12-24T08:36:15.834Z,1015.17
2018-12-24T08:37:15.821Z,1015.24
2018-12-24T08:38:15.882Z,1015.22
2018-12-24T08:39:15.799Z,1015.28
2018-12-24T08:40:15.788Z,1015.38
2018-12-24T08:41:15.776Z,1015.40
2018-12-24T08:42:15.764Z,1015.42
2018-12-24T08:43:15.775Z,1015.52
2018-12-24T08:44:15.742Z,1015.52
2018-12-24T08:45:15.730Z,1015.65
2018-12-24T08:46:15.721Z,1015.66
2018-12-24T08:47:15.710Z,1015.71
2018-12-24T08:48:15.718Z,1015.74
2018-12-24T08:49:15.692Z,1015.74
2018-12-24T08:50:15.679Z,1015.79
2018-12-24T08:51:15.665Z,1015.85
2018-12-24T08:52:15.653Z,1015.88
2018-12-24T08:53:15.662Z,1015.95
2018-12-24T08:54:15.634Z,1015.96
2018-12-24T08:55:15.622Z,1016.00
2018-12-24T08:56:15.610Z,1016.04
2018-12-24T08:57:15.597Z,1016.06
2018-12-24T08:58:15.606Z,1016.17
2018-12-24T08:59:15.576Z,1016.20
2018-12-24T09:00:15.564Z,1016.26
2018-12-24T09:01:15.552Z,1016.30
2018-12-24T09:02:15.540Z,1016.39
2018-12-24T09:03:15.570Z,1016.34
2018-12-24T09:04:15.520Z,1016.44
2018-12-24T09:05:15.504Z,1016.41
2018-12-24T09:06:15.494Z,1016.45
2018-12-24T09:07:15.487Z,1016.56
2018-12-24T09:08:15.470Z,1016.55
2018-12-24T09:09:15.482Z,1016.57
2018-12-24T09:10:15.447Z,1016.66
2018-12-24T09:11:15.442Z,1016.66
2018-12-24T09:12:15.428Z,1016.66
2018-12-24T09:13:15.412Z,1016.73
2018-12-24T09:14:15.402Z,1016.75
2018-12-24T09:15:15.408Z,1016.74
2018-12-24T09:16:15.377Z,1016.77
2018-12-24T09:17:15.370Z,1016.76
2018-12-24T09:18:15.355Z,1016.81
2018-12-24T09:19:15.345Z,1016.83
2018-12-24T09:20:15.351Z,1016.82
2018-12-24T09:21:15.321Z,1016.96
2018-12-24T09:22:15.312Z,1016.95
2018-12-24T09:23:15.299Z,1016.96
2018-12-24T09:24:15.346Z,1017.01
2018-12-24T09:25:15.297Z,1017.01
2018-12-24T09:26:15.268Z,1016.98
2018-12-24T09:27:15.253Z,1017.00
2018-12-24T09:28:15.242Z,1016.96
2018-12-24T09:29:15.229Z,1017.03
2018-12-24T09:30:15.222Z,1017.01
2018-12-24T09:31:15.225Z,1017.04
2018-12-24T09:32:15.197Z,1017.04
2018-12-24T09:33:15.187Z,1017.07
2018-12-24T09:34:15.189Z,1017.03
2018-12-24T09:35:15.163Z,1017.03
2018-12-24T09:36:15.169Z,1016.98
2018-12-24T09:37:15.139Z,1017.05
2018-12-24T09:38:15.129Z,1017.00
2018-12-24T09:39:15.118Z,1017.09
2018-12-24T09:40:15.106Z,1017.10
2018-12-24T09:41:15.110Z,1017.13
2018-12-24T09:42:15.080Z,1017.26
2018-12-24T09:43:15.070Z,1017.29
2018-12-24T09:44:15.060Z,1017.29
2018-12-24T09:45:15.050Z,1017.44
2018-12-24T09:46:15.053Z,1017.36
2018-12-24T09:47:15.022Z,1017.47
2018-12-24T09:48:15.023Z,1017.45
2018-12-24T09:49:15.000Z,1017.45
2018-12-24T09:50:14.987Z,1017.52
2018-12-24T09:51:15.026Z,1017.52
2018-12-24T09:52:15.049Z,1017.55
2018-12-24T09:53:14.959Z,1017.58
2018-12-24T09:54:14.940Z,1017.56
2018-12-24T09:55:14.980Z,1017.51
2018-12-24T09:56:14.921Z,1017.64
2018-12-24T09:57:14.933Z,1017.60
2018-12-24T09:58:14.895Z,1017.70
2018-12-24T09:59:14.884Z,1017.70
2018-12-24T10:00:14.873Z,1017.67
2018-12-24T10:01:14.899Z,1017.69
2018-12-24T10:02:16.426Z,1017.69
2018-12-24T10:03:14.836Z,1017.71
2018-12-24T10:04:14.824Z,1017.74
2018-12-24T10:05:14.816Z,1017.73
2018-12-24T10:06:14.803Z,1017.76
2018-12-24T10:07:14.813Z,1017.80
2018-12-24T10:08:14.822Z,1017.80
2018-12-24T10:09:14.765Z,1017.84
2018-12-24T10:10:14.753Z,1017.83
2018-12-24T10:11:14.743Z,1017.82
2018-12-24T10:12:14.733Z,1017.87
2018-12-24T10:13:14.740Z,1017.88
2018-12-24T10:14:14.708Z,1017.81
2018-12-24T10:15:14.696Z,1017.78
2018-12-24T10:16:14.685Z,1017.78
2018-12-24T10:17:14.674Z,1017.80
2018-12-24T10:18:14.684Z,1017.83
2018-12-24T10:19:14.654Z,1017.83
2018-12-24T10:20:14.638Z,1017.78
2018-12-24T10:21:14.682Z,1017.82
2018-12-24T10:22:14.617Z,1017.83
2018-12-24T10:23:14.629Z,1017.82
2018-12-24T10:24:14.593Z,1017.81
2018-12-24T10:25:14.583Z,1017.79
2018-12-24T10:26:14.572Z,1017.81
2018-12-24T10:27:14.559Z,1017.83
2018-12-24T10:28:14.548Z,1017.80
2018-12-24T10:29:14.557Z,1017.84
2018-12-24T10:30:14.525Z,1017.84
2018-12-24T10:31:14.513Z,1017.91
2018-12-24T10:32:14.501Z,1017.93
2018-12-24T10:33:14.494Z,1017.90
2018-12-24T10:34:14.500Z,1017.89
2018-12-24T10:35:14.468Z,1017.87
2018-12-24T10:36:14.457Z,1017.87
2018-12-24T10:37:14.445Z,1017.83
2018-12-24T10:38:14.434Z,1017.87
2018-12-24T10:39:14.440Z,1017.90
2018-12-24T10:40:14.408Z,1017.91
2018-12-24T10:41:14.396Z,1017.91
2018-12-24T10:42:14.384Z,1017.92
2018-12-24T10:43:14.375Z,1017.91
2018-12-24T10:44:14.401Z,1017.96
2018-12-24T10:45:16.711Z,1018.03
2018-12-24T10:46:14.340Z,1018.04
2018-12-24T10:47:14.330Z,1018.11
2018-12-24T10:48:14.314Z,1018.08
2018-12-24T10:49:14.301Z,1018.15
2018-12-24T10:50:14.308Z,1018.14
2018-12-24T10:51:14.279Z,1018.07
2018-12-24T10:52:14.268Z,1018.06
2018-12-24T10:53:14.255Z,1018.02
2018-12-24T10:54:14.246Z,1018.09
2018-12-24T10:55:14.273Z,1018.07
2018-12-24T10:56:14.223Z,1018.06
2018-12-24T10:57:14.211Z,1018.05
2018-12-24T10:58:14.204Z,1018.00
2018-12-24T10:59:14.187Z,1017.95
2018-12-24T11:00:14.178Z,1018.09
2018-12-24T11:01:14.180Z,1018.03
2018-12-24T11:02:14.151Z,1018.03
2018-12-24T11:03:14.141Z,1018.03
2018-12-24T11:04:14.128Z,1017.95
2018-12-24T11:05:14.117Z,1017.85
2018-12-24T11:06:14.122Z,1017.94
2018-12-24T11:07:14.094Z,1018.01
2018-12-24T11:08:14.085Z,1018.01
2018-12-24T11:09:14.075Z,1017.94
2018-12-24T11:10:14.061Z,1017.99
2018-12-24T11:11:14.065Z,1017.88
2018-12-24T11:12:14.036Z,1017.95
2018-12-24T11:13:14.024Z,1017.95
2018-12-24T11:14:14.012Z,1017.97
2018-12-24T11:15:13.999Z,1018.07
2018-12-24T11:16:14.012Z,1017.98
2018-12-24T11:17:13.976Z,1018.04
2018-12-24T11:18:13.969Z,1017.97
2018-12-24T11:19:13.981Z,1018.02
2018-12-24T11:20:13.942Z,1017.97
2018-12-24T11:21:13.948Z,1017.97
2018-12-24T11:22:13.919Z,1017.96
2018-12-24T11:23:13.908Z,1017.98
2018-12-24T11:24:13.895Z,1018.05
2018-12-24T11:25:13.884Z,1018.07
2018-12-24T11:26:13.895Z,1018.01
2018-12-24T11:27:13.860Z,1018.04
2018-12-24T11:28:13.848Z,1018.06
2018-12-24T11:29:13.840Z,1018.00
2018-12-24T11:30:13.826Z,1018.02
2018-12-24T11:31:13.816Z,1018.03
2018-12-24T11:32:13.825Z,1018.08
2018-12-24T11:33:13.791Z,1018.07
2018-12-24T11:34:13.782Z,1018.05
2018-12-24T11:35:13.767Z,1018.02
2018-12-24T11:36:13.755Z,1017.98
2018-12-24T11:37:13.809Z,1018.02
2018-12-24T11:38:13.732Z,1018.02
2018-12-24T11:39:13.722Z,1018.00
2018-12-24T11:40:13.711Z,1018.07
2018-12-24T11:41:13.698Z,1018.02
2018-12-24T11:42:13.686Z,1018.00
2018-12-24T11:43:13.692Z,1017.98
2018-12-24T11:44:13.663Z,1018.04
2018-12-24T11:45:13.652Z,1018.03
2018-12-24T11:46:13.642Z,1018.02
2018-12-24T11:47:13.630Z,1017.99
2018-12-24T11:48:13.634Z,1018.03
2018-12-24T11:49:13.608Z,1018.10
2018-12-24T11:50:13.596Z,1018.12
2018-12-24T11:51:13.583Z,1018.08
2018-12-24T11:52:13.581Z,1018.08
2018-12-24T11:53:13.577Z,1018.11
2018-12-24T11:54:13.548Z,1018.13
2018-12-24T11:55:13.537Z,1018.20
2018-12-24T11:56:13.525Z,1018.15
2018-12-24T11:57:13.514Z,1018.16
2018-12-24T11:58:13.618Z,1018.15
2018-12-24T11:59:13.492Z,1018.15
2018-12-24T12:00:13.480Z,1018.16
2018-12-24T12:01:13.474Z,1018.19
2018-12-24T12:02:13.460Z,1018.13
2018-12-24T12:03:13.468Z,1018.26
2018-12-24T12:04:13.435Z,1018.24
2018-12-24T12:05:13.426Z,1018.28